sensor_id;sensor_type;location;lat;lon;timestamp;P1;durP1;ratioP1;P2;durP2;ratioP2
52734;SDS011;38631;47.572;10.704;2022-11-02T00:01:41;11.65;;;5.45;;
52734;SDS011;38631;47.572;10.704;2022-11-02T00:04:08;8.52;;;5.10;;
52734;SDS011;38631;47.572;10.704;2022-11-02T00:06:34;13.25;;;4.80;;
52734;SDS011;38631;47.572;10.704;2022-11-02T00:08:59;8.88;;;4.25;;
52734;SDS011;38631;47.572;10.704;2022-11-02T00:11:24;9.02;;;4.65;;
52734;SDS011;38631;47.572;10.704;2022-11-02T00:13:50;10.23;;;4.13;;
52734;SDS011;38631;47.572;10.704;2022-11-02T00:16:16;11.60;;;4.95;;
52734;SDS011;38631;47.572;10.704;2022-11-02T00:18:43;8.77;;;4.18;;
52734;SDS011;38631;47.572;10.704;2022-11-02T00:21:11;6.82;;;4.03;;
52734;SDS011;38631;47.572;10.704;2022-11-02T00:23:38;7.70;;;4.07;;
52734;SDS011;38631;47.572;10.704;2022-11-02T00:26:05;9.13;;;4.35;;
52734;SDS011;38631;47.572;10.704;2022-11-02T00:28:30;9.98;;;4.68;;
52734;SDS011;38631;47.572;10.704;2022-11-02T00:30:56;9.35;;;4.30;;
52734;SDS011;38631;47.572;10.704;2022-11-02T00:33:21;8.57;;;4.15;;
52734;SDS011;38631;47.572;10.704;2022-11-02T00:35:47;10.32;;;5.05;;
52734;SDS011;38631;47.572;10.704;2022-11-02T00:38:12;13.15;;;5.10;;
52734;SDS011;38631;47.572;10.704;2022-11-02T00:40:37;9.20;;;4.18;;
52734;SDS011;38631;47.572;10.704;2022-11-02T00:43:03;7.72;;;4.35;;
52734;SDS011;38631;47.572;10.704;2022-11-02T00:45:30;10.43;;;4.82;;
52734;SDS011;38631;47.572;10.704;2022-11-02T00:47:55;9.10;;;4.45;;
52734;SDS011;38631;47.572;10.704;2022-11-02T00:50:20;8.52;;;4.32;;
52734;SDS011;38631;47.572;10.704;2022-11-02T00:52:46;11.25;;;4.30;;
52734;SDS011;38631;47.572;10.704;2022-11-02T00:55:11;10.15;;;4.68;;
52734;SDS011;38631;47.572;10.704;2022-11-02T00:57:40;10.93;;;4.43;;
52734;SDS011;38631;47.572;10.704;2022-11-02T01:00:06;10.90;;;4.50;;
52734;SDS011;38631;47.572;10.704;2022-11-02T01:02:34;11.85;;;5.57;;
52734;SDS011;38631;47.572;10.704;2022-11-02T01:04:59;11.63;;;4.97;;
52734;SDS011;38631;47.572;10.704;2022-11-02T01:07:26;10.25;;;4.35;;
52734;SDS011;38631;47.572;10.704;2022-11-02T01:09:51;9.93;;;4.70;;
52734;SDS011;38631;47.572;10.704;2022-11-02T01:12:17;9.73;;;4.72;;
52734;SDS011;38631;47.572;10.704;2022-11-02T01:14:44;9.27;;;5.40;;
52734;SDS011;38631;47.572;10.704;2022-11-02T01:17:10;9.07;;;4.80;;
52734;SDS011;38631;47.572;10.704;2022-11-02T01:19:35;7.95;;;3.85;;
52734;SDS011;38631;47.572;10.704;2022-11-02T01:22:01;9.02;;;4.53;;
52734;SDS011;38631;47.572;10.704;2022-11-02T01:24:26;12.77;;;4.50;;
52734;SDS011;38631;47.572;10.704;2022-11-02T01:26:51;5.78;;;3.58;;
52734;SDS011;38631;47.572;10.704;2022-11-02T01:29:17;9.38;;;4.40;;
52734;SDS011;38631;47.572;10.704;2022-11-02T01:31:43;10.05;;;4.53;;
52734;SDS011;38631;47.572;10.704;2022-11-02T01:34:09;9.48;;;3.78;;
52734;SDS011;38631;47.572;10.704;2022-11-02T01:36:35;7.95;;;3.78;;
52734;SDS011;38631;47.572;10.704;2022-11-02T01:39:00;7.53;;;4.50;;
52734;SDS011;38631;47.572;10.704;2022-11-02T01:41:26;14.80;;;4.20;;
52734;SDS011;38631;47.572;10.704;2022-11-02T01:43:53;7.22;;;3.72;;
52734;SDS011;38631;47.572;10.704;2022-11-02T01:46:25;9.10;;;4.30;;
52734;SDS011;38631;47.572;10.704;2022-11-02T01:49:03;12.90;;;5.03;;
52734;SDS011;38631;47.572;10.704;2022-11-02T01:51:34;9.93;;;4.53;;
52734;SDS011;38631;47.572;10.704;2022-11-02T01:54:04;10.63;;;4.47;;
52734;SDS011;38631;47.572;10.704;2022-11-02T01:56:40;11.23;;;4.30;;
52734;SDS011;38631;47.572;10.704;2022-11-02T01:59:09;10.27;;;4.85;;
52734;SDS011;38631;47.572;10.704;2022-11-02T02:01:42;6.90;;;4.55;;
52734;SDS011;38631;47.572;10.704;2022-11-02T02:04:07;8.23;;;4.88;;
52734;SDS011;38631;47.572;10.704;2022-11-02T02:06:34;7.63;;;4.18;;
52734;SDS011;38631;47.572;10.704;2022-11-02T02:09:01;9.90;;;4.03;;
52734;SDS011;38631;47.572;10.704;2022-11-02T02:11:38;9.02;;;4.40;;
52734;SDS011;38631;47.572;10.704;2022-11-02T02:14:05;9.45;;;3.85;;
52734;SDS011;38631;47.572;10.704;2022-11-02T02:19:20;11.13;;;3.90;;
52734;SDS011;38631;47.572;10.704;2022-11-02T02:27:41;15.13;;;4.30;;
52734;SDS011;38631;47.572;10.704;2022-11-02T02:30:25;10.73;;;4.10;;
52734;SDS011;38631;47.572;10.704;2022-11-02T02:32:55;14.48;;;4.35;;
52734;SDS011;38631;47.572;10.704;2022-11-02T02:35:29;8.55;;;4.10;;
52734;SDS011;38631;47.572;10.704;2022-11-02T02:38:07;8.60;;;3.95;;
52734;SDS011;38631;47.572;10.704;2022-11-02T02:43:28;9.25;;;4.72;;
52734;SDS011;38631;47.572;10.704;2022-11-02T02:46:21;12.02;;;4.40;;
52734;SDS011;38631;47.572;10.704;2022-11-02T02:49:23;12.02;;;3.90;;
52734;SDS011;38631;47.572;10.704;2022-11-02T02:52:02;12.32;;;5.45;;
52734;SDS011;38631;47.572;10.704;2022-11-02T02:54:34;10.55;;;4.55;;
52734;SDS011;38631;47.572;10.704;2022-11-02T02:57:05;7.78;;;3.50;;
52734;SDS011;38631;47.572;10.704;2022-11-02T02:59:45;7.85;;;3.80;;
52734;SDS011;38631;47.572;10.704;2022-11-02T03:04:49;7.53;;;3.78;;
52734;SDS011;38631;47.572;10.704;2022-11-02T03:07:17;14.60;;;5.32;;
52734;SDS011;38631;47.572;10.704;2022-11-02T03:09:49;6.53;;;3.88;;
52734;SDS011;38631;47.572;10.704;2022-11-02T03:12:52;10.75;;;3.92;;
52734;SDS011;38631;47.572;10.704;2022-11-02T03:15:36;10.07;;;4.30;;
52734;SDS011;38631;47.572;10.704;2022-11-02T03:18:16;8.18;;;4.40;;
52734;SDS011;38631;47.572;10.704;2022-11-02T03:20:56;11.13;;;4.45;;
52734;SDS011;38631;47.572;10.704;2022-11-02T03:23:33;7.32;;;4.18;;
52734;SDS011;38631;47.572;10.704;2022-11-02T03:26:05;11.50;;;3.55;;
52734;SDS011;38631;47.572;10.704;2022-11-02T03:28:41;8.85;;;3.83;;
52734;SDS011;38631;47.572;10.704;2022-11-02T03:31:16;7.32;;;3.80;;
52734;SDS011;38631;47.572;10.704;2022-11-02T03:36:36;9.60;;;4.97;;
52734;SDS011;38631;47.572;10.704;2022-11-02T03:39:07;8.93;;;4.18;;
52734;SDS011;38631;47.572;10.704;2022-11-02T03:41:36;8.52;;;3.88;;
52734;SDS011;38631;47.572;10.704;2022-11-02T03:44:07;10.07;;;4.53;;
52734;SDS011;38631;47.572;10.704;2022-11-02T03:46:37;10.70;;;4.13;;
52734;SDS011;38631;47.572;10.704;2022-11-02T03:49:06;9.90;;;4.90;;
52734;SDS011;38631;47.572;10.704;2022-11-02T03:51:35;8.02;;;3.45;;
52734;SDS011;38631;47.572;10.704;2022-11-02T03:54:16;9.35;;;4.10;;
52734;SDS011;38631;47.572;10.704;2022-11-02T03:56:50;9.70;;;4.07;;
52734;SDS011;38631;47.572;10.704;2022-11-02T03:59:20;8.15;;;3.50;;
52734;SDS011;38631;47.572;10.704;2022-11-02T04:01:46;8.23;;;4.13;;
52734;SDS011;38631;47.572;10.704;2022-11-02T04:04:13;6.53;;;3.30;;
52734;SDS011;38631;47.572;10.704;2022-11-02T04:06:39;20.83;;;5.40;;
52734;SDS011;38631;47.572;10.704;2022-11-02T04:09:06;9.20;;;4.30;;
52734;SDS011;38631;47.572;10.704;2022-11-02T04:11:31;7.88;;;3.90;;
52734;SDS011;38631;47.572;10.704;2022-11-02T04:14:15;9.15;;;4.15;;
52734;SDS011;38631;47.572;10.704;2022-11-02T04:17:00;12.32;;;4.20;;
52734;SDS011;38631;47.572;10.704;2022-11-02T04:19:44;11.32;;;4.50;;
52734;SDS011;38631;47.572;10.704;2022-11-02T04:22:09;8.85;;;4.43;;
52734;SDS011;38631;47.572;10.704;2022-11-02T04:24:54;14.55;;;4.32;;
52734;SDS011;38631;47.572;10.704;2022-11-02T04:27:37;10.90;;;3.90;;
52734;SDS011;38631;47.572;10.704;2022-11-02T04:30:03;10.00;;;3.83;;
52734;SDS011;38631;47.572;10.704;2022-11-02T04:32:29;8.43;;;3.80;;
52734;SDS011;38631;47.572;10.704;2022-11-02T04:35:12;8.55;;;3.97;;
52734;SDS011;38631;47.572;10.704;2022-11-02T04:37:38;8.25;;;3.75;;
52734;SDS011;38631;47.572;10.704;2022-11-02T04:40:25;6.68;;;3.60;;
52734;SDS011;38631;47.572;10.704;2022-11-02T04:42:51;8.93;;;3.35;;
52734;SDS011;38631;47.572;10.704;2022-11-02T04:45:16;10.63;;;4.35;;
52734;SDS011;38631;47.572;10.704;2022-11-02T04:47:42;11.07;;;4.18;;
52734;SDS011;38631;47.572;10.704;2022-11-02T04:50:07;8.27;;;4.15;;
52734;SDS011;38631;47.572;10.704;2022-11-02T04:52:33;9.13;;;4.05;;
52734;SDS011;38631;47.572;10.704;2022-11-02T04:54:59;10.32;;;4.25;;
52734;SDS011;38631;47.572;10.704;2022-11-02T04:57:24;9.52;;;3.38;;
52734;SDS011;38631;47.572;10.704;2022-11-02T04:59:49;6.57;;;3.30;;
52734;SDS011;38631;47.572;10.704;2022-11-02T05:02:15;8.35;;;3.63;;
52734;SDS011;38631;47.572;10.704;2022-11-02T05:04:40;9.48;;;4.68;;
52734;SDS011;38631;47.572;10.704;2022-11-02T05:07:05;6.45;;;3.50;;
52734;SDS011;38631;47.572;10.704;2022-11-02T05:09:32;8.60;;;4.15;;
52734;SDS011;38631;47.572;10.704;2022-11-02T05:11:57;5.78;;;3.00;;
52734;SDS011;38631;47.572;10.704;2022-11-02T05:14:23;9.18;;;3.70;;
52734;SDS011;38631;47.572;10.704;2022-11-02T05:16:48;9.63;;;3.63;;
52734;SDS011;38631;47.572;10.704;2022-11-02T05:19:14;8.27;;;3.55;;
52734;SDS011;38631;47.572;10.704;2022-11-02T05:21:39;8.48;;;3.70;;
52734;SDS011;38631;47.572;10.704;2022-11-02T05:24:05;12.10;;;4.43;;
52734;SDS011;38631;47.572;10.704;2022-11-02T05:26:30;17.08;;;4.55;;
52734;SDS011;38631;47.572;10.704;2022-11-02T05:28:56;7.97;;;3.25;;
52734;SDS011;38631;47.572;10.704;2022-11-02T05:31:21;7.82;;;3.20;;
52734;SDS011;38631;47.572;10.704;2022-11-02T05:33:47;8.13;;;3.28;;
52734;SDS011;38631;47.572;10.704;2022-11-02T05:36:12;8.55;;;3.58;;
52734;SDS011;38631;47.572;10.704;2022-11-02T05:38:37;10.45;;;3.40;;
52734;SDS011;38631;47.572;10.704;2022-11-02T05:41:03;7.30;;;3.30;;
52734;SDS011;38631;47.572;10.704;2022-11-02T05:43:28;6.90;;;3.40;;
52734;SDS011;38631;47.572;10.704;2022-11-02T05:45:54;9.85;;;4.07;;
52734;SDS011;38631;47.572;10.704;2022-11-02T05:48:24;17.33;;;4.80;;
52734;SDS011;38631;47.572;10.704;2022-11-02T05:50:57;7.13;;;3.47;;
52734;SDS011;38631;47.572;10.704;2022-11-02T05:53:24;8.30;;;3.65;;
52734;SDS011;38631;47.572;10.704;2022-11-02T05:55:50;9.98;;;4.60;;
52734;SDS011;38631;47.572;10.704;2022-11-02T05:58:16;10.27;;;4.03;;
52734;SDS011;38631;47.572;10.704;2022-11-02T06:00:41;7.30;;;3.25;;
52734;SDS011;38631;47.572;10.704;2022-11-02T06:03:07;7.85;;;3.70;;
52734;SDS011;38631;47.572;10.704;2022-11-02T06:05:32;6.72;;;3.25;;
52734;SDS011;38631;47.572;10.704;2022-11-02T06:07:58;7.20;;;3.10;;
52734;SDS011;38631;47.572;10.704;2022-11-02T06:10:25;8.07;;;3.67;;
52734;SDS011;38631;47.572;10.704;2022-11-02T06:12:55;8.35;;;3.15;;
52734;SDS011;38631;47.572;10.704;2022-11-02T06:15:21;9.73;;;3.70;;
52734;SDS011;38631;47.572;10.704;2022-11-02T06:17:46;10.18;;;3.80;;
52734;SDS011;38631;47.572;10.704;2022-11-02T06:20:12;7.68;;;3.15;;
52734;SDS011;38631;47.572;10.704;2022-11-02T06:22:38;11.20;;;3.88;;
52734;SDS011;38631;47.572;10.704;2022-11-02T06:25:07;7.88;;;3.25;;
52734;SDS011;38631;47.572;10.704;2022-11-02T06:27:33;12.40;;;4.07;;
52734;SDS011;38631;47.572;10.704;2022-11-02T06:29:59;9.77;;;3.67;;
52734;SDS011;38631;47.572;10.704;2022-11-02T06:32:24;5.82;;;3.45;;
52734;SDS011;38631;47.572;10.704;2022-11-02T06:34:50;7.60;;;3.67;;
52734;SDS011;38631;47.572;10.704;2022-11-02T06:37:15;8.02;;;3.60;;
52734;SDS011;38631;47.572;10.704;2022-11-02T06:39:40;9.52;;;3.80;;
52734;SDS011;38631;47.572;10.704;2022-11-02T06:42:06;11.27;;;3.58;;
52734;SDS011;38631;47.572;10.704;2022-11-02T06:44:31;7.38;;;3.83;;
52734;SDS011;38631;47.572;10.704;2022-11-02T06:46:56;5.05;;;3.30;;
52734;SDS011;38631;47.572;10.704;2022-11-02T06:49:22;9.02;;;3.75;;
52734;SDS011;38631;47.572;10.704;2022-11-02T06:51:50;9.80;;;4.03;;
52734;SDS011;38631;47.572;10.704;2022-11-02T06:54:16;9.00;;;3.28;;
52734;SDS011;38631;47.572;10.704;2022-11-02T06:56:41;9.75;;;3.20;;
52734;SDS011;38631;47.572;10.704;2022-11-02T06:59:07;7.63;;;3.47;;
52734;SDS011;38631;47.572;10.704;2022-11-02T07:01:32;9.98;;;3.10;;
52734;SDS011;38631;47.572;10.704;2022-11-02T07:03:59;7.85;;;4.20;;
52734;SDS011;38631;47.572;10.704;2022-11-02T07:06:24;9.43;;;4.72;;
52734;SDS011;38631;47.572;10.704;2022-11-02T07:08:50;10.13;;;5.43;;
52734;SDS011;38631;47.572;10.704;2022-11-02T07:11:15;12.40;;;3.63;;
52734;SDS011;38631;47.572;10.704;2022-11-02T07:13:41;9.45;;;4.28;;
52734;SDS011;38631;47.572;10.704;2022-11-02T07:16:06;10.57;;;3.85;;
52734;SDS011;38631;47.572;10.704;2022-11-02T07:18:32;9.70;;;3.70;;
52734;SDS011;38631;47.572;10.704;2022-11-02T07:20:57;7.78;;;3.58;;
52734;SDS011;38631;47.572;10.704;2022-11-02T07:23:23;8.98;;;3.55;;
52734;SDS011;38631;47.572;10.704;2022-11-02T07:25:49;7.35;;;3.25;;
52734;SDS011;38631;47.572;10.704;2022-11-02T07:28:14;9.05;;;3.70;;
52734;SDS011;38631;47.572;10.704;2022-11-02T07:30:39;12.00;;;4.15;;
52734;SDS011;38631;47.572;10.704;2022-11-02T07:33:05;6.45;;;3.45;;
52734;SDS011;38631;47.572;10.704;2022-11-02T07:35:30;9.27;;;3.92;;
52734;SDS011;38631;47.572;10.704;2022-11-02T07:37:59;5.75;;;3.20;;
52734;SDS011;38631;47.572;10.704;2022-11-02T07:40:26;7.50;;;3.40;;
52734;SDS011;38631;47.572;10.704;2022-11-02T07:42:53;7.28;;;3.20;;
52734;SDS011;38631;47.572;10.704;2022-11-02T07:45:19;9.73;;;3.20;;
52734;SDS011;38631;47.572;10.704;2022-11-02T07:47:45;8.20;;;3.13;;
52734;SDS011;38631;47.572;10.704;2022-11-02T07:50:12;8.02;;;3.33;;
52734;SDS011;38631;47.572;10.704;2022-11-02T07:55:14;11.00;;;3.58;;
52734;SDS011;38631;47.572;10.704;2022-11-02T07:57:41;7.90;;;2.70;;
52734;SDS011;38631;47.572;10.704;2022-11-02T08:00:08;11.40;;;3.40;;
52734;SDS011;38631;47.572;10.704;2022-11-02T08:02:37;7.37;;;3.43;;
52734;SDS011;38631;47.572;10.704;2022-11-02T08:05:03;11.25;;;3.63;;
52734;SDS011;38631;47.572;10.704;2022-11-02T08:07:29;8.60;;;4.15;;
52734;SDS011;38631;47.572;10.704;2022-11-02T08:09:54;9.30;;;4.35;;
52734;SDS011;38631;47.572;10.704;2022-11-02T08:12:19;9.27;;;3.60;;
52734;SDS011;38631;47.572;10.704;2022-11-02T08:14:45;7.78;;;3.72;;
52734;SDS011;38631;47.572;10.704;2022-11-02T08:17:10;9.05;;;3.72;;
52734;SDS011;38631;47.572;10.704;2022-11-02T08:19:35;5.63;;;3.20;;
52734;SDS011;38631;47.572;10.704;2022-11-02T08:22:01;11.82;;;4.07;;
52734;SDS011;38631;47.572;10.704;2022-11-02T08:24:26;8.02;;;3.78;;
52734;SDS011;38631;47.572;10.704;2022-11-02T08:26:51;11.40;;;3.53;;
52734;SDS011;38631;47.572;10.704;2022-11-02T08:29:17;6.03;;;3.50;;
52734;SDS011;38631;47.572;10.704;2022-11-02T08:31:42;11.88;;;4.13;;
52734;SDS011;38631;47.572;10.704;2022-11-02T08:34:08;8.25;;;3.58;;
52734;SDS011;38631;47.572;10.704;2022-11-02T08:36:35;10.18;;;3.17;;
52734;SDS011;38631;47.572;10.704;2022-11-02T08:39:01;6.28;;;3.40;;
52734;SDS011;38631;47.572;10.704;2022-11-02T08:41:26;7.13;;;3.20;;
52734;SDS011;38631;47.572;10.704;2022-11-02T08:43:52;8.15;;;3.85;;
52734;SDS011;38631;47.572;10.704;2022-11-02T08:46:17;8.18;;;3.45;;
52734;SDS011;38631;47.572;10.704;2022-11-02T08:48:42;7.93;;;3.67;;
52734;SDS011;38631;47.572;10.704;2022-11-02T08:51:08;13.55;;;3.55;;
52734;SDS011;38631;47.572;10.704;2022-11-02T08:53:34;6.32;;;3.00;;
52734;SDS011;38631;47.572;10.704;2022-11-02T08:55:59;5.38;;;3.13;;
52734;SDS011;38631;47.572;10.704;2022-11-02T08:58:25;7.65;;;2.63;;
52734;SDS011;38631;47.572;10.704;2022-11-02T09:00:53;6.60;;;3.70;;
52734;SDS011;38631;47.572;10.704;2022-11-02T09:03:19;10.23;;;3.15;;
52734;SDS011;38631;47.572;10.704;2022-11-02T09:05:45;6.70;;;3.20;;
52734;SDS011;38631;47.572;10.704;2022-11-02T09:08:18;4.30;;;2.60;;
52734;SDS011;38631;47.572;10.704;2022-11-02T09:10:45;8.55;;;2.30;;
52734;SDS011;38631;47.572;10.704;2022-11-02T09:13:13;9.38;;;3.08;;
52734;SDS011;38631;47.572;10.704;2022-11-02T09:15:39;7.38;;;2.40;;
52734;SDS011;38631;47.572;10.704;2022-11-02T09:18:05;6.90;;;2.60;;
52734;SDS011;38631;47.572;10.704;2022-11-02T09:20:32;7.10;;;2.75;;
52734;SDS011;38631;47.572;10.704;2022-11-02T09:22:58;7.20;;;3.28;;
52734;SDS011;38631;47.572;10.704;2022-11-02T09:25:23;6.07;;;2.08;;
52734;SDS011;38631;47.572;10.704;2022-11-02T09:27:52;8.18;;;3.10;;
52734;SDS011;38631;47.572;10.704;2022-11-02T09:32:51;7.55;;;2.40;;
52734;SDS011;38631;47.572;10.704;2022-11-02T09:35:40;6.72;;;2.67;;
52734;SDS011;38631;47.572;10.704;2022-11-02T09:38:07;5.65;;;2.13;;
52734;SDS011;38631;47.572;10.704;2022-11-02T09:40:37;5.22;;;2.30;;
52734;SDS011;38631;47.572;10.704;2022-11-02T09:43:09;8.40;;;2.22;;
52734;SDS011;38631;47.572;10.704;2022-11-02T09:45:46;5.75;;;2.10;;
52734;SDS011;38631;47.572;10.704;2022-11-02T09:48:16;8.30;;;2.80;;
52734;SDS011;38631;47.572;10.704;2022-11-02T09:50:47;6.75;;;1.88;;
52734;SDS011;38631;47.572;10.704;2022-11-02T09:53:19;6.85;;;1.90;;
52734;SDS011;38631;47.572;10.704;2022-11-02T09:55:51;13.77;;;2.38;;
52734;SDS011;38631;47.572;10.704;2022-11-02T09:58:20;5.65;;;1.95;;
52734;SDS011;38631;47.572;10.704;2022-11-02T10:00:48;8.70;;;2.50;;
52734;SDS011;38631;47.572;10.704;2022-11-02T10:03:19;5.28;;;1.77;;
52734;SDS011;38631;47.572;10.704;2022-11-02T10:05:57;7.40;;;1.63;;
52734;SDS011;38631;47.572;10.704;2022-11-02T10:08:46;4.80;;;1.75;;
52734;SDS011;38631;47.572;10.704;2022-11-02T10:11:29;7.35;;;2.42;;
52734;SDS011;38631;47.572;10.704;2022-11-02T10:14:11;5.78;;;2.05;;
52734;SDS011;38631;47.572;10.704;2022-11-02T10:16:54;6.72;;;2.10;;
52734;SDS011;38631;47.572;10.704;2022-11-02T10:19:38;8.03;;;2.30;;
52734;SDS011;38631;47.572;10.704;2022-11-02T10:22:04;7.03;;;1.60;;
52734;SDS011;38631;47.572;10.704;2022-11-02T10:24:38;3.13;;;1.40;;
52734;SDS011;38631;47.572;10.704;2022-11-02T10:30:12;9.40;;;1.98;;
52734;SDS011;38631;47.572;10.704;2022-11-02T10:32:39;6.20;;;1.77;;
52734;SDS011;38631;47.572;10.704;2022-11-02T10:35:17;8.65;;;1.98;;
52734;SDS011;38631;47.572;10.704;2022-11-02T10:48:54;8.15;;;1.80;;
52734;SDS011;38631;47.572;10.704;2022-11-02T10:51:38;6.57;;;1.75;;
52734;SDS011;38631;47.572;10.704;2022-11-02T10:54:07;5.97;;;1.40;;
52734;SDS011;38631;47.572;10.704;2022-11-02T10:56:38;4.95;;;1.40;;
52734;SDS011;38631;47.572;10.704;2022-11-02T11:04:21;6.75;;;1.38;;
52734;SDS011;38631;47.572;10.704;2022-11-02T11:06:49;6.55;;;1.73;;
52734;SDS011;38631;47.572;10.704;2022-11-02T11:09:24;5.72;;;1.40;;
52734;SDS011;38631;47.572;10.704;2022-11-02T11:11:55;10.70;;;1.90;;
52734;SDS011;38631;47.572;10.704;2022-11-02T11:14:24;6.05;;;1.55;;
52734;SDS011;38631;47.572;10.704;2022-11-02T11:19:34;5.90;;;2.03;;
52734;SDS011;38631;47.572;10.704;2022-11-02T11:22:04;4.82;;;1.67;;
52734;SDS011;38631;47.572;10.704;2022-11-02T11:24:48;7.38;;;1.63;;
52734;SDS011;38631;47.572;10.704;2022-11-02T11:27:18;7.40;;;1.70;;
52734;SDS011;38631;47.572;10.704;2022-11-02T11:29:48;7.47;;;1.60;;
52734;SDS011;38631;47.572;10.704;2022-11-02T11:32:24;7.85;;;1.50;;
52734;SDS011;38631;47.572;10.704;2022-11-02T11:34:55;6.25;;;1.83;;
52734;SDS011;38631;47.572;10.704;2022-11-02T11:37:21;4.80;;;1.25;;
52734;SDS011;38631;47.572;10.704;2022-11-02T11:39:49;7.57;;;1.70;;
52734;SDS011;38631;47.572;10.704;2022-11-02T11:42:19;4.68;;;1.50;;
52734;SDS011;38631;47.572;10.704;2022-11-02T11:44:51;7.70;;;2.15;;
52734;SDS011;38631;47.572;10.704;2022-11-02T11:47:46;9.03;;;2.03;;
52734;SDS011;38631;47.572;10.704;2022-11-02T11:50:25;4.57;;;1.10;;
52734;SDS011;38631;47.572;10.704;2022-11-02T11:55:53;9.77;;;1.77;;
52734;SDS011;38631;47.572;10.704;2022-11-02T11:58:23;7.15;;;1.70;;
52734;SDS011;38631;47.572;10.704;2022-11-02T12:08:56;6.32;;;1.77;;
52734;SDS011;38631;47.572;10.704;2022-11-02T12:11:41;4.93;;;1.40;;
52734;SDS011;38631;47.572;10.704;2022-11-02T12:14:29;5.07;;;1.70;;
52734;SDS011;38631;47.572;10.704;2022-11-02T12:17:20;6.47;;;1.20;;
52734;SDS011;38631;47.572;10.704;2022-11-02T12:26:00;6.30;;;1.85;;
52734;SDS011;38631;47.572;10.704;2022-11-02T12:31:33;5.03;;;1.50;;
52734;SDS011;38631;47.572;10.704;2022-11-02T12:36:51;5.88;;;1.50;;
52734;SDS011;38631;47.572;10.704;2022-11-02T12:50:09;6.00;;;1.30;;
52734;SDS011;38631;47.572;10.704;2022-11-02T12:53:03;5.00;;;1.80;;
52734;SDS011;38631;47.572;10.704;2022-11-02T12:55:37;5.60;;;1.92;;
52734;SDS011;38631;47.572;10.704;2022-11-02T12:58:15;10.18;;;2.47;;
52734;SDS011;38631;47.572;10.704;2022-11-02T13:00:45;9.55;;;1.90;;
52734;SDS011;38631;47.572;10.704;2022-11-02T13:03:18;6.13;;;2.17;;
52734;SDS011;38631;47.572;10.704;2022-11-02T13:05:59;6.38;;;1.70;;
52734;SDS011;38631;47.572;10.704;2022-11-02T13:08:35;7.03;;;1.67;;
52734;SDS011;38631;47.572;10.704;2022-11-02T13:11:14;7.72;;;3.05;;
52734;SDS011;38631;47.572;10.704;2022-11-02T13:13:47;6.05;;;1.98;;
52734;SDS011;38631;47.572;10.704;2022-11-02T13:16:16;6.72;;;1.88;;
52734;SDS011;38631;47.572;10.704;2022-11-02T13:18:48;3.83;;;1.40;;
52734;SDS011;38631;47.572;10.704;2022-11-02T13:21:39;6.18;;;1.20;;
52734;SDS011;38631;47.572;10.704;2022-11-02T13:24:06;4.53;;;1.93;;
52734;SDS011;38631;47.572;10.704;2022-11-02T13:26:39;6.40;;;2.22;;
52734;SDS011;38631;47.572;10.704;2022-11-02T13:29:21;4.40;;;1.67;;
52734;SDS011;38631;47.572;10.704;2022-11-02T13:32:21;4.78;;;1.10;;
52734;SDS011;38631;47.572;10.704;2022-11-02T13:34:52;6.30;;;1.20;;
52734;SDS011;38631;47.572;10.704;2022-11-02T13:37:20;5.63;;;1.38;;
52734;SDS011;38631;47.572;10.704;2022-11-02T13:39:49;5.47;;;1.25;;
52734;SDS011;38631;47.572;10.704;2022-11-02T13:47:55;6.53;;;1.60;;
52734;SDS011;38631;47.572;10.704;2022-11-02T13:50:33;8.38;;;1.40;;
52734;SDS011;38631;47.572;10.704;2022-11-02T13:53:06;3.65;;;1.10;;
52734;SDS011;38631;47.572;10.704;2022-11-02T13:55:43;4.40;;;1.20;;
52734;SDS011;38631;47.572;10.704;2022-11-02T13:58:21;6.53;;;1.60;;
52734;SDS011;38631;47.572;10.704;2022-11-02T14:00:50;15.82;;;2.25;;
52734;SDS011;38631;47.572;10.704;2022-11-02T14:05:54;7.60;;;1.30;;
52734;SDS011;38631;47.572;10.704;2022-11-02T14:40:04;3.22;;;1.20;;
52734;SDS011;38631;47.572;10.704;2022-11-02T14:45:43;5.90;;;1.40;;
52734;SDS011;38631;47.572;10.704;2022-11-02T14:48:20;3.33;;;1.10;;
52734;SDS011;38631;47.572;10.704;2022-11-02T14:50:56;4.28;;;1.35;;
52734;SDS011;38631;47.572;10.704;2022-11-02T14:53:28;10.27;;;1.55;;
52734;SDS011;38631;47.572;10.704;2022-11-02T14:55:58;5.38;;;1.70;;
52734;SDS011;38631;47.572;10.704;2022-11-02T14:58:31;5.63;;;2.15;;
52734;SDS011;38631;47.572;10.704;2022-11-02T15:01:02;7.55;;;2.28;;
52734;SDS011;38631;47.572;10.704;2022-11-02T15:03:31;6.20;;;1.80;;
52734;SDS011;38631;47.572;10.704;2022-11-02T15:08:35;7.63;;;2.10;;
52734;SDS011;38631;47.572;10.704;2022-11-02T15:16:59;8.75;;;3.28;;
52734;SDS011;38631;47.572;10.704;2022-11-02T15:19:36;8.73;;;3.20;;
52734;SDS011;38631;47.572;10.704;2022-11-02T15:27:49;18.02;;;5.97;;
52734;SDS011;38631;47.572;10.704;2022-11-02T15:30:18;8.73;;;2.78;;
52734;SDS011;38631;47.572;10.704;2022-11-02T15:32:48;7.60;;;2.50;;
52734;SDS011;38631;47.572;10.704;2022-11-02T15:35:18;6.60;;;2.75;;
52734;SDS011;38631;47.572;10.704;2022-11-02T15:37:45;6.60;;;2.35;;
52734;SDS011;38631;47.572;10.704;2022-11-02T15:40:18;9.18;;;2.83;;
52734;SDS011;38631;47.572;10.704;2022-11-02T15:42:51;6.45;;;2.45;;
52734;SDS011;38631;47.572;10.704;2022-11-02T15:53:59;6.97;;;3.08;;
52734;SDS011;38631;47.572;10.704;2022-11-02T16:02:40;8.30;;;1.90;;
52734;SDS011;38631;47.572;10.704;2022-11-02T16:05:14;5.75;;;2.00;;
52734;SDS011;38631;47.572;10.704;2022-11-02T16:07:44;5.88;;;1.75;;
52734;SDS011;38631;47.572;10.704;2022-11-02T16:10:21;6.40;;;2.60;;
52734;SDS011;38631;47.572;10.704;2022-11-02T16:12:54;6.20;;;3.10;;
52734;SDS011;38631;47.572;10.704;2022-11-02T16:15:35;8.32;;;2.85;;
52734;SDS011;38631;47.572;10.704;2022-11-02T16:18:20;11.07;;;4.50;;
52734;SDS011;38631;47.572;10.704;2022-11-02T16:20:56;8.05;;;3.22;;
52734;SDS011;38631;47.572;10.704;2022-11-02T16:23:26;7.38;;;2.35;;
52734;SDS011;38631;47.572;10.704;2022-11-02T16:25:54;5.18;;;1.60;;
52734;SDS011;38631;47.572;10.704;2022-11-02T16:28:23;3.95;;;1.67;;
52734;SDS011;38631;47.572;10.704;2022-11-02T16:31:18;6.63;;;1.50;;
52734;SDS011;38631;47.572;10.704;2022-11-02T16:33:55;6.65;;;1.67;;
52734;SDS011;38631;47.572;10.704;2022-11-02T16:36:23;4.72;;;2.33;;
52734;SDS011;38631;47.572;10.704;2022-11-02T16:39:05;5.20;;;2.40;;
52734;SDS011;38631;47.572;10.704;2022-11-02T16:41:40;5.88;;;2.90;;
52734;SDS011;38631;47.572;10.704;2022-11-02T16:44:16;4.30;;;2.03;;
52734;SDS011;38631;47.572;10.704;2022-11-02T16:46:49;8.63;;;2.50;;
52734;SDS011;38631;47.572;10.704;2022-11-02T16:54:48;11.07;;;2.70;;
52734;SDS011;38631;47.572;10.704;2022-11-02T17:04:57;5.40;;;2.17;;
52734;SDS011;38631;47.572;10.704;2022-11-02T17:07:23;5.95;;;2.45;;
52734;SDS011;38631;47.572;10.704;2022-11-02T17:09:54;7.30;;;2.83;;
52734;SDS011;38631;47.572;10.704;2022-11-02T17:12:25;8.50;;;3.22;;
52734;SDS011;38631;47.572;10.704;2022-11-02T17:15:02;6.63;;;2.80;;
52734;SDS011;38631;47.572;10.704;2022-11-02T17:17:36;7.50;;;3.55;;
52734;SDS011;38631;47.572;10.704;2022-11-02T17:20:14;8.73;;;4.13;;
52734;SDS011;38631;47.572;10.704;2022-11-02T17:25:27;24.75;;;6.82;;
52734;SDS011;38631;47.572;10.704;2022-11-02T17:27:55;22.40;;;8.93;;
52734;SDS011;38631;47.572;10.704;2022-11-02T17:30:40;32.35;;;11.55;;
52734;SDS011;38631;47.572;10.704;2022-11-02T17:33:25;36.15;;;15.18;;
52734;SDS011;38631;47.572;10.704;2022-11-02T17:35:54;36.17;;;14.70;;